createdAt,value
2018-03-27T00:01:32.561Z,136.93
2018-03-27T00:04:00.120Z,132.20
2018-03-27T00:06:28.768Z,143.17
2018-03-27T00:08:56.391Z,142.40
2018-03-27T00:11:23.931Z,146.98
2018-03-27T00:13:51.515Z,149.52
2018-03-27T00:16:19.060Z,137.00
2018-03-27T00:18:46.619Z,132.07
2018-03-27T00:21:30.809Z,139.75
2018-03-27T00:26:34.040Z,135.47
2018-03-27T00:29:14.183Z,147.43
2018-03-27T00:31:53.576Z,137.90
2018-03-27T00:34:33.036Z,135.77
2018-03-27T00:37:12.780Z,144.37
2018-03-27T00:39:52.031Z,137.93
2018-03-27T00:42:40.328Z,137.60
2018-03-27T00:45:07.877Z,138.93
2018-03-27T00:47:36.179Z,139.80
2018-03-27T00:50:03.760Z,134.50
2018-03-27T00:52:31.305Z,128.40
2018-03-27T00:54:58.920Z,132.93
2018-03-27T00:57:28.300Z,137.25
2018-03-27T00:59:55.844Z,138.20
2018-03-27T01:02:23.402Z,129.33
2018-03-27T01:04:50.975Z,135.60
2018-03-27T01:07:18.584Z,133.25
2018-03-27T01:09:46.895Z,125.50
2018-03-27T01:12:16.340Z,124.90
2018-03-27T01:14:43.888Z,130.63
2018-03-27T01:17:11.433Z,130.02
2018-03-27T01:19:39.204Z,126.37
2018-03-27T01:22:06.756Z,137.87
2018-03-27T01:24:34.300Z,127.87
2018-03-27T01:27:01.903Z,135.93
2018-03-27T01:29:29.451Z,130.07
2018-03-27T01:31:57.007Z,128.87
2018-03-27T01:34:24.580Z,127.20
2018-03-27T01:36:52.132Z,128.17
2018-03-27T01:39:19.680Z,120.78
2018-03-27T01:41:47.684Z,127.37
2018-03-27T01:44:17.272Z,127.87
2018-03-27T01:46:44.812Z,134.70
2018-03-27T01:49:12.419Z,130.63
2018-03-27T01:51:39.971Z,133.07
2018-03-27T01:54:07.511Z,120.75
2018-03-27T01:56:35.092Z,118.87
2018-03-27T01:59:02.920Z,134.33
2018-03-27T02:01:30.468Z,137.50
2018-03-27T02:03:59.106Z,132.00
2018-03-27T02:06:26.652Z,132.40
2018-03-27T02:08:54.196Z,125.67
2018-03-27T02:11:27.384Z,130.97
2018-03-27T02:14:00.612Z,122.13
2018-03-27T02:16:33.739Z,141.30
2018-03-27T02:19:06.834Z,141.90
2018-03-27T02:21:34.652Z,129.93
2018-03-27T02:24:03.699Z,137.23
2018-03-27T02:26:31.307Z,134.32
2018-03-27T02:28:58.900Z,130.00
2018-03-27T02:31:27.270Z,132.87
2018-03-27T02:33:54.809Z,123.37
2018-03-27T02:36:22.413Z,122.82
2018-03-27T02:38:49.972Z,140.93
2018-03-27T02:41:18.357Z,129.73
2018-03-27T02:43:47.304Z,128.83
2018-03-27T02:46:15.608Z,125.40
2018-03-27T02:48:43.166Z,128.33
2018-03-27T02:51:14.568Z,133.70
2018-03-27T02:53:42.126Z,142.07
2018-03-27T02:56:09.677Z,135.17
2018-03-27T02:58:37.264Z,124.83
2018-03-27T03:01:05.143Z,131.73
2018-03-27T03:03:32.695Z,129.82
2018-03-27T03:06:00.871Z,134.73
2018-03-27T03:08:28.420Z,143.03
2018-03-27T03:10:55.984Z,146.27
2018-03-27T03:13:23.568Z,139.15
2018-03-27T03:15:51.155Z,141.57
2018-03-27T03:18:18.712Z,142.23
2018-03-27T03:20:46.288Z,154.13
2018-03-27T03:23:26.672Z,141.20
2018-03-27T03:28:30.140Z,153.37
2018-03-27T03:30:57.735Z,152.93
2018-03-27T03:33:25.328Z,161.03
2018-03-27T03:35:52.895Z,148.37
2018-03-27T03:38:20.436Z,141.43
2018-03-27T03:40:48.020Z,150.80
2018-03-27T03:43:17.322Z,145.12
2018-03-27T03:45:44.949Z,139.40
2018-03-27T03:48:12.522Z,134.37
2018-03-27T03:50:40.605Z,149.63
2018-03-27T03:53:08.188Z,136.73
2018-03-27T03:55:35.712Z,146.37
2018-03-27T03:58:03.283Z,150.53
2018-03-27T04:00:30.903Z,143.82
2018-03-27T04:02:59.383Z,137.93
2018-03-27T04:05:26.970Z,141.13
2018-03-27T04:07:54.530Z,134.07
2018-03-27T04:10:22.076Z,148.00
2018-03-27T04:12:49.960Z,148.23
2018-03-27T04:15:17.503Z,149.32
2018-03-27T04:17:45.044Z,149.83
2018-03-27T04:20:12.608Z,145.00
2018-03-27T04:22:40.151Z,151.37
2018-03-27T04:25:07.776Z,154.17
2018-03-27T04:27:35.347Z,154.37
2018-03-27T04:30:02.891Z,155.93
2018-03-27T04:32:30.422Z,173.73
2018-03-27T04:34:58.524Z,158.93
2018-03-27T04:37:26.068Z,163.30
2018-03-27T04:39:53.604Z,163.07
2018-03-27T04:42:21.184Z,163.40
2018-03-27T04:44:48.783Z,172.70
2018-03-27T04:47:16.468Z,168.20
2018-03-27T04:49:44.804Z,174.03
2018-03-27T04:52:12.341Z,165.57
2018-03-27T04:54:39.876Z,182.43
2018-03-27T04:57:07.487Z,169.25
2018-03-27T04:59:35.039Z,153.53
2018-03-27T05:02:02.575Z,162.60
2018-03-27T05:04:30.768Z,177.27
2018-03-27T05:06:58.321Z,176.00
2018-03-27T05:09:25.909Z,170.63
2018-03-27T05:11:53.477Z,168.07
2018-03-27T05:14:21.020Z,170.73
2018-03-27T05:16:48.560Z,166.87
2018-03-27T05:19:16.944Z,165.75
2018-03-27T05:21:44.500Z,146.30
2018-03-27T05:24:12.043Z,149.53
2018-03-27T05:26:39.612Z,157.00
2018-03-27T05:29:07.196Z,171.30
2018-03-27T05:31:34.741Z,167.83
2018-03-27T05:34:02.328Z,164.23
2018-03-27T05:36:29.859Z,163.37
2018-03-27T05:38:57.402Z,167.93
2018-03-27T05:41:25.486Z,162.67
2018-03-27T05:43:53.028Z,174.00
2018-03-27T05:46:20.682Z,165.82
2018-03-27T05:48:49.028Z,182.23
2018-03-27T05:51:16.619Z,169.30
2018-03-27T05:53:44.946Z,185.23
2018-03-27T05:56:12.564Z,174.77
2018-03-27T05:58:40.872Z,179.20
2018-03-27T06:01:08.410Z,151.63
2018-03-27T06:03:36.221Z,155.60
2018-03-27T06:06:04.009Z,161.90
2018-03-27T06:08:32.326Z,153.27
2018-03-27T06:10:59.900Z,153.43
2018-03-27T06:13:27.444Z,156.20
2018-03-27T06:15:55.004Z,160.33
2018-03-27T06:18:22.579Z,154.70
2018-03-27T06:20:50.621Z,158.73
2018-03-27T06:23:18.921Z,167.53
2018-03-27T06:25:47.947Z,169.47
2018-03-27T06:28:16.473Z,158.57
2018-03-27T06:30:44.768Z,177.00
2018-03-27T06:33:12.332Z,160.90
2018-03-27T06:35:39.872Z,177.97
2018-03-27T06:38:08.178Z,170.03
2018-03-27T06:40:35.759Z,158.47
2018-03-27T06:43:03.320Z,159.00
2018-03-27T06:45:30.980Z,150.80
2018-03-27T06:47:58.673Z,155.75
2018-03-27T06:50:26.217Z,160.30
2018-03-27T06:52:53.817Z,154.13
2018-03-27T06:55:21.372Z,155.07
2018-03-27T06:57:49.684Z,161.70
2018-03-27T07:00:17.269Z,159.63
2018-03-27T07:05:18.483Z,168.67
2018-03-27T07:07:46.981Z,180.97
2018-03-27T07:10:15.690Z,181.85
2018-03-27T07:12:43.279Z,172.33
2018-03-27T07:15:10.827Z,178.13
2018-03-27T07:17:38.405Z,167.80
2018-03-27T07:23:02.614Z,167.47
2018-03-27T07:25:30.209Z,173.00
2018-03-27T07:27:57.778Z,188.00
2018-03-27T07:30:27.397Z,199.80
2018-03-27T07:35:27.972Z,184.97
2018-03-27T07:37:55.569Z,178.90
2018-03-27T07:40:23.819Z,192.70
2018-03-27T07:42:51.394Z,188.77
2018-03-27T07:45:18.968Z,199.70
2018-03-27T07:47:46.630Z,192.25
2018-03-27T07:50:28.541Z,192.52
2018-03-27T08:02:26.465Z,154.47
2018-03-27T08:04:54.029Z,158.13
2018-03-27T08:07:21.696Z,154.73
2018-03-27T08:09:49.584Z,145.93
2018-03-27T08:12:17.904Z,132.83
2018-03-27T08:14:45.477Z,163.17
2018-03-27T10:49:46.703Z,55.97
2018-03-27T10:52:26.529Z,55.15
2018-03-27T10:57:27.876Z,52.30
2018-03-27T10:59:55.426Z,57.03
2018-03-27T11:02:22.964Z,52.17
2018-03-27T11:04:51.348Z,49.25
2018-03-27T11:07:18.888Z,49.80
2018-03-27T11:09:46.431Z,53.20
2018-03-27T11:12:16.336Z,51.45
2018-03-27T11:14:43.892Z,51.67
2018-03-27T11:17:11.432Z,54.13
2018-03-27T11:19:38.992Z,64.43
2018-03-27T11:22:06.556Z,51.92
2018-03-27T11:24:34.109Z,55.93
2018-03-27T11:27:02.099Z,51.07
2018-03-27T11:29:29.745Z,55.60
2018-03-27T11:31:57.305Z,65.80
2018-03-27T11:34:24.911Z,62.73
2018-03-27T11:36:52.455Z,57.70
2018-03-27T11:39:20.008Z,57.58
2018-03-27T11:41:47.630Z,57.77
2018-03-27T11:44:15.595Z,62.10
2018-03-27T11:46:43.132Z,62.40
2018-03-27T11:49:11.492Z,60.37
2018-03-27T11:51:39.291Z,54.30
2018-03-27T11:54:07.400Z,57.63
2018-03-27T11:56:34.977Z,56.90
2018-03-27T11:59:02.519Z,59.08
2018-03-27T12:01:30.079Z,67.75
2018-03-27T12:03:58.571Z,63.87
2018-03-27T12:06:26.153Z,59.05
2018-03-27T12:08:53.708Z,72.77
2018-03-27T12:11:21.668Z,62.80
2018-03-27T12:13:49.217Z,54.53
2018-03-27T12:16:16.773Z,52.87
2018-03-27T12:18:44.390Z,51.67
2018-03-27T12:21:11.939Z,52.50
2018-03-27T12:23:40.243Z,53.63
2018-03-27T12:26:07.806Z,57.40
2018-03-27T12:31:13.783Z,49.75
2018-03-27T12:33:41.330Z,48.30
2018-03-27T12:36:09.969Z,52.37
2018-03-27T12:38:38.648Z,49.90
2018-03-27T12:41:09.182Z,47.03
2018-03-27T12:43:36.837Z,48.83
2018-03-27T12:46:04.408Z,49.33
2018-03-27T12:48:31.957Z,44.55
2018-03-27T12:50:59.605Z,48.70
2018-03-27T12:53:28.000Z,48.03
2018-03-27T12:55:55.549Z,46.15
2018-03-27T12:58:23.100Z,47.07
2018-03-27T13:00:50.671Z,42.15
2018-03-27T13:03:18.216Z,54.27
2018-03-27T13:05:45.774Z,37.80
2018-03-27T13:08:30.945Z,39.03
2018-03-27T13:13:31.712Z,40.17
2018-03-27T13:15:59.277Z,46.90
2018-03-27T13:18:26.820Z,49.20
2018-03-27T13:20:55.160Z,43.50
2018-03-27T13:23:23.126Z,44.17
2018-03-27T13:25:51.441Z,51.53
2018-03-27T13:28:19.901Z,55.03
2018-03-27T13:30:47.440Z,48.70
2018-03-27T13:33:16.392Z,48.30
2018-03-27T13:35:43.987Z,38.60
2018-03-27T13:38:11.547Z,35.60
2018-03-27T13:40:39.083Z,40.60
2018-03-27T13:43:06.671Z,39.33
2018-03-27T13:45:34.981Z,39.53
2018-03-27T13:48:02.550Z,39.20
2018-03-27T13:50:30.448Z,41.73
2018-03-27T13:52:57.987Z,41.50
2018-03-27T13:55:25.796Z,42.83
2018-03-27T13:57:57.372Z,50.03
2018-03-27T14:00:26.847Z,42.93
2018-03-27T14:02:55.424Z,43.80
2018-03-27T14:05:23.021Z,39.40
2018-03-27T14:07:57.365Z,41.30
2018-03-27T14:10:25.268Z,43.87
2018-03-27T14:12:52.811Z,44.50
2018-03-27T14:15:20.354Z,43.97
2018-03-27T14:17:47.932Z,41.33
2018-03-27T14:20:17.332Z,41.67
2018-03-27T14:22:45.174Z,40.07
2018-03-27T14:25:12.752Z,42.13
2018-03-27T14:27:40.295Z,40.20
2018-03-27T14:30:07.839Z,43.07
2018-03-27T14:32:35.908Z,52.28
2018-03-27T14:35:03.459Z,46.53
2018-03-27T14:37:31.013Z,40.03
2018-03-27T14:39:59.364Z,42.90
2018-03-27T14:42:26.912Z,41.20
2018-03-27T14:44:54.872Z,37.43
2018-03-27T14:47:22.448Z,39.60
2018-03-27T14:49:49.992Z,39.10
2018-03-27T14:52:17.532Z,38.17
2018-03-27T14:54:45.311Z,40.10
2018-03-27T14:57:14.003Z,41.20
2018-03-27T14:59:41.604Z,37.83
2018-03-27T15:02:09.172Z,42.23
2018-03-27T15:04:36.720Z,42.37
2018-03-27T15:07:04.259Z,44.90
2018-03-27T15:09:31.831Z,40.60
2018-03-27T15:11:59.383Z,44.47
2018-03-27T15:14:26.919Z,48.13
2018-03-27T15:16:55.060Z,49.73
2018-03-27T15:19:23.436Z,43.30
2018-03-27T15:21:51.745Z,45.03
2018-03-27T15:24:19.368Z,37.37
2018-03-27T15:26:46.980Z,39.03
2018-03-27T15:29:25.333Z,42.40
2018-03-27T15:35:04.341Z,56.30
2018-03-27T15:37:31.919Z,42.33
2018-03-27T15:39:59.499Z,41.20
2018-03-27T15:42:27.134Z,47.30
2018-03-27T15:44:54.793Z,46.97
2018-03-27T15:47:22.420Z,46.10
2018-03-27T15:49:50.068Z,43.50
2018-03-27T15:52:17.689Z,41.80
2018-03-27T15:54:45.317Z,38.93
2018-03-27T15:57:13.909Z,36.53
2018-03-27T15:59:42.152Z,38.90
2018-03-27T16:02:09.813Z,44.00
2018-03-27T16:04:37.485Z,40.78
2018-03-27T16:07:05.317Z,41.73
2018-03-27T16:09:32.966Z,38.88
2018-03-27T16:12:00.601Z,38.10
2018-03-27T16:14:28.193Z,40.72
2018-03-27T16:16:55.843Z,40.30
2018-03-27T16:19:23.521Z,44.27
2018-03-27T16:21:51.169Z,44.27
2018-03-27T16:24:18.983Z,39.17
2018-03-27T16:29:27.977Z,49.53
2018-03-27T16:31:55.697Z,38.70
2018-03-27T16:34:24.275Z,44.20
2018-03-27T16:36:52.174Z,39.57
2018-03-27T16:39:20.182Z,39.53
2018-03-27T16:41:49.831Z,41.17
2018-03-27T16:44:17.486Z,44.63
2018-03-27T16:46:45.141Z,43.47
2018-03-27T16:49:14.870Z,44.53
2018-03-27T16:51:42.785Z,45.63
2018-03-27T16:54:10.450Z,45.00
2018-03-27T16:56:38.134Z,45.13
2018-03-27T16:59:05.812Z,53.87
2018-03-27T17:01:34.512Z,53.17
2018-03-27T17:04:02.175Z,46.53
2018-03-27T17:06:29.805Z,41.33
2018-03-27T17:08:58.240Z,47.90
2018-03-27T17:11:26.053Z,45.92
2018-03-27T17:13:54.457Z,49.90
2018-03-27T17:16:22.088Z,56.53
2018-03-27T17:18:49.789Z,50.53
2018-03-27T17:21:17.327Z,48.30
2018-03-27T17:23:45.232Z,57.17
2018-03-27T17:26:12.881Z,55.83
2018-03-27T17:28:40.427Z,53.05
2018-03-27T17:31:08.006Z,53.90
2018-03-27T17:33:36.628Z,50.80
2018-03-27T17:36:04.235Z,52.03
2018-03-27T17:38:31.852Z,53.23
2018-03-27T17:40:59.421Z,47.80
2018-03-27T17:43:27.048Z,51.30
2018-03-27T17:45:54.724Z,59.05
2018-03-27T17:48:22.416Z,52.23
2018-03-27T17:50:49.980Z,54.13
2018-03-27T17:53:17.613Z,47.43
2018-03-27T17:55:45.203Z,56.70
2018-03-27T17:58:14.450Z,54.10
2018-03-27T18:00:42.027Z,45.70
2018-03-27T18:03:09.907Z,47.22
2018-03-27T18:05:37.488Z,52.50
2018-03-27T18:08:05.094Z,57.00
2018-03-27T18:10:32.881Z,57.42
2018-03-27T18:13:00.939Z,47.57
2018-03-27T18:15:36.292Z,58.28
2018-03-27T18:18:04.660Z,52.07
2018-03-27T18:20:32.213Z,50.27
2018-03-27T18:23:01.298Z,50.80
2018-03-27T18:25:28.876Z,60.80
2018-03-27T18:27:56.420Z,52.47
2018-03-27T18:30:24.357Z,57.67
2018-03-27T18:32:51.917Z,60.13
2018-03-27T18:35:20.224Z,55.00
2018-03-27T18:37:47.799Z,56.30
2018-03-27T18:40:16.387Z,53.33
2018-03-27T18:42:43.931Z,60.50
2018-03-27T18:45:11.709Z,56.33
2018-03-27T18:47:39.264Z,54.33
2018-03-27T18:50:06.895Z,62.60
2018-03-27T18:52:34.749Z,57.00
2018-03-27T18:55:02.336Z,54.03
2018-03-27T18:57:29.884Z,55.83
2018-03-27T18:59:57.502Z,69.70
2018-03-27T19:02:25.057Z,63.80
2018-03-27T19:04:53.703Z,65.17
2018-03-27T19:07:21.313Z,65.15
2018-03-27T19:09:48.866Z,66.37
2018-03-27T19:12:16.452Z,65.12
2018-03-27T19:14:44.050Z,60.43
2018-03-27T19:17:11.627Z,61.67
2018-03-27T19:19:39.186Z,67.10
2018-03-27T19:22:06.749Z,71.33
2018-03-27T19:24:34.290Z,64.93
2018-03-27T19:27:01.832Z,65.17
2018-03-27T19:29:30.168Z,60.50
2018-03-27T19:31:57.724Z,62.53
2018-03-27T19:34:25.293Z,57.20
2018-03-27T19:36:52.916Z,63.40
2018-03-27T19:39:20.488Z,59.98
2018-03-27T19:41:48.813Z,59.63
2018-03-27T19:44:16.493Z,57.28
2018-03-27T19:46:44.918Z,78.33
2018-03-27T19:49:12.520Z,63.75
2018-03-27T19:51:40.978Z,61.13
2018-03-27T19:54:08.511Z,61.30
2018-03-27T19:56:36.053Z,57.67
2018-03-27T19:59:04.143Z,60.08
2018-03-27T20:01:31.669Z,64.18
2018-03-27T20:04:00.000Z,63.87
2018-03-27T20:06:27.639Z,63.33
2018-03-27T20:08:55.186Z,64.70
2018-03-27T20:11:22.728Z,66.62
2018-03-27T20:13:51.063Z,67.83
2018-03-27T20:16:18.603Z,64.18
2018-03-27T20:18:47.047Z,66.57
2018-03-27T20:21:16.527Z,65.47
2018-03-27T20:23:44.847Z,66.37
2018-03-27T20:26:12.387Z,59.30
2018-03-27T20:28:39.964Z,67.93
2018-03-27T20:31:07.516Z,59.88
2018-03-27T20:33:35.060Z,62.00
2018-03-27T20:36:02.640Z,65.18
2018-03-27T20:38:30.188Z,62.10
2018-03-27T20:40:57.780Z,68.17
2018-03-27T20:43:25.673Z,66.83
2018-03-27T20:45:53.371Z,56.10
2018-03-27T20:48:21.694Z,60.67
2018-03-27T20:50:49.292Z,57.23
2018-03-27T20:53:16.840Z,60.27
2018-03-27T20:55:44.384Z,72.40
2018-03-27T20:58:11.952Z,64.73
2018-03-27T21:00:39.516Z,64.13
2018-03-27T21:03:07.852Z,60.27
2018-03-27T21:05:35.495Z,62.20
2018-03-27T21:08:04.005Z,64.60
2018-03-27T21:10:31.950Z,63.75
2018-03-27T21:13:00.447Z,60.05
2018-03-27T21:15:27.979Z,58.80
2018-03-27T21:17:55.516Z,60.33
2018-03-27T21:20:23.085Z,59.97
2018-03-27T21:22:50.740Z,55.37
2018-03-27T21:25:19.136Z,55.33
2018-03-27T21:27:48.377Z,59.37
2018-03-27T21:30:18.620Z,57.32
2018-03-27T21:32:46.189Z,58.33
2018-03-27T21:35:14.809Z,62.30
2018-03-27T21:37:43.126Z,52.93
2018-03-27T21:40:10.671Z,55.47
2018-03-27T21:42:39.114Z,55.17
2018-03-27T21:45:06.673Z,53.03
2018-03-27T21:47:34.220Z,51.87
2018-03-27T21:50:01.963Z,53.63
2018-03-27T21:52:29.576Z,53.85
2018-03-27T21:54:57.138Z,55.57
2018-03-27T21:57:25.384Z,54.17
2018-03-27T21:59:52.968Z,54.70
2018-03-27T22:02:21.298Z,53.90
2018-03-27T22:04:49.891Z,42.97
2018-03-27T22:07:17.440Z,40.97
2018-03-27T22:09:45.272Z,42.03
2018-03-27T22:12:15.668Z,52.67
2018-03-27T22:14:43.208Z,51.57
2018-03-27T22:17:10.764Z,49.13
2018-03-27T22:19:38.431Z,48.87
2018-03-27T22:22:05.991Z,49.03
2018-03-27T22:24:33.585Z,52.67
2018-03-27T22:27:01.201Z,51.23
2018-03-27T22:29:28.743Z,49.70
2018-03-27T22:31:56.279Z,57.00
2018-03-27T22:34:23.891Z,47.33
2018-03-27T22:36:51.427Z,45.65
2018-03-27T22:39:18.968Z,48.43
2018-03-27T22:41:46.575Z,42.62
2018-03-27T22:44:16.374Z,44.90
2018-03-27T22:46:43.940Z,46.97
2018-03-27T22:49:11.513Z,42.80
2018-03-27T22:51:39.056Z,43.00
2018-03-27T22:54:06.597Z,46.37
2018-03-27T22:56:34.487Z,43.33
2018-03-27T22:59:02.060Z,44.50
2018-03-27T23:01:29.617Z,42.80
2018-03-27T23:03:57.291Z,39.47
2018-03-27T23:06:24.833Z,49.45
2018-03-27T23:08:52.435Z,48.37
2018-03-27T23:11:20.481Z,44.55
2018-03-27T23:13:48.897Z,46.63
2018-03-27T23:16:16.470Z,49.23
2018-03-27T23:18:44.696Z,44.10
2018-03-27T23:21:12.282Z,44.70
2018-03-27T23:23:39.820Z,42.77
2018-03-27T23:26:07.398Z,45.00
2018-03-27T23:28:35.716Z,49.90
2018-03-27T23:31:03.380Z,48.80
2018-03-27T23:33:30.968Z,55.03
2018-03-27T23:35:58.507Z,52.50
2018-03-27T23:38:26.047Z,45.57
2018-03-27T23:40:54.105Z,47.00
2018-03-27T23:43:21.645Z,51.93
2018-03-27T23:45:49.948Z,54.57
2018-03-27T23:48:17.515Z,51.58
2018-03-27T23:50:45.044Z,50.47
2018-03-27T23:53:14.276Z,48.03
2018-03-27T23:55:41.840Z,40.83
2018-03-27T23:58:09.386Z,40.77
